FNLU/LAD METAR and TAF weather

Enter ICAO airport designator
Station Type Date Time Source
FNLU METAR 2019/10/18 07:00 UTC NOAA

FNLU 180700Z 18007KT 9999 FEW013 BKN070 26/22 Q1013 NOSIG


Station Type Date Time Source
FNLU Decoded METAR 2019/10/18 07:00 UTC NOAA

Luanda, Angola (FNLU) 08-51S 013-14E 70M
Oct 18, 2019 - 03:00 AM EDT / 2019.10.18 0700 UTC
Wind: from the S (180 degrees) at 8 MPH (7 KT):0
Visibility: greater than 7 mile(s):0
Sky conditions: mostly cloudy
Temperature: 78 F (26 C)
Dew Point: 71 F (22 C)
Relative Humidity: 78%
Pressure (altimeter): 29.91 in. Hg (1013 hPa)
ob: FNLU 180700Z 18007KT 9999 FEW013 BKN070 26/22 Q1013 NOSIG
cycle: 7

Station Type Date Time Source
FNLU TAF 2019/10/18 06:45 UTC NOAA

TAF FNLU 180445Z 1806/1912 18005KT 8000 FEW020 BKN025
BECMG 1810/1812 28010KT 9999 SCT023 BKN040
TEMPO 1822/1824 24005KT 8000 SCT022

Example: see airport list